sensor_id;sensor_type;location;lat;lon;timestamp;pressure;altitude;pressure_sealevel;temperature;humidity
3176;BME280;1599;51.564;6.990;2023-10-13T00:01:23;100691.84;;;18.09;100.00
3176;BME280;1599;51.564;6.990;2023-10-13T00:03:52;100683.00;;;18.02;100.00
3176;BME280;1599;51.564;6.990;2023-10-13T00:06:18;100682.41;;;18.05;100.00
3176;BME280;1599;51.564;6.990;2023-10-13T00:08:45;100681.84;;;18.08;100.00
3176;BME280;1599;51.564;6.990;2023-10-13T00:11:15;100680.22;;;18.07;100.00
3176;BME280;1599;51.564;6.990;2023-10-13T00:13:41;100682.41;;;18.05;100.00
3176;BME280;1599;51.564;6.990;2023-10-13T00:16:21;100672.97;;;18.06;100.00
3176;BME280;1599;51.564;6.990;2023-10-13T00:18:51;100674.38;;;18.03;100.00
3176;BME280;1599;51.564;6.990;2023-10-13T00:21:20;100663.84;;;18.00;100.00
3176;BME280;1599;51.564;6.990;2023-10-13T00:23:57;100659.59;;;18.08;100.00
3176;BME280;1599;51.564;6.990;2023-10-13T00:26:26;100655.75;;;18.04;100.00
3176;BME280;1599;51.564;6.990;2023-10-13T00:28:54;100649.72;;;17.92;100.00
3176;BME280;1599;51.564;6.990;2023-10-13T00:31:36;100656.44;;;17.91;100.00
3176;BME280;1599;51.564;6.990;2023-10-13T00:34:04;100650.19;;;18.04;100.00
3176;BME280;1599;51.564;6.990;2023-10-13T00:36:37;100641.84;;;18.04;100.00
3176;BME280;1599;51.564;6.990;2023-10-13T00:39:03;100646.31;;;18.00;100.00
3176;BME280;1599;51.564;6.990;2023-10-13T00:41:32;100643.00;;;17.98;100.00
3176;BME280;1599;51.564;6.990;2023-10-13T00:44:18;100638.03;;;17.95;100.00
3176;BME280;1599;51.564;6.990;2023-10-13T00:46:53;100633.03;;;17.92;100.00
3176;BME280;1599;51.564;6.990;2023-10-13T00:49:22;100627.16;;;17.98;100.00
3176;BME280;1599;51.564;6.990;2023-10-13T00:51:49;100625.97;;;18.04;100.00
3176;BME280;1599;51.564;6.990;2023-10-13T00:54:17;100632.63;;;18.08;100.00
3176;BME280;1599;51.564;6.990;2023-10-13T00:56:46;100626.22;;;18.08;100.00
3176;BME280;1599;51.564;6.990;2023-10-13T00:59:23;100621.25;;;18.05;100.00
3176;BME280;1599;51.564;6.990;2023-10-13T01:01:51;100616.28;;;18.02;100.00
3176;BME280;1599;51.564;6.990;2023-10-13T01:04:21;100606.91;;;17.93;100.00
3176;BME280;1599;51.564;6.990;2023-10-13T01:06:50;100612.38;;;18.03;100.00
3176;BME280;1599;51.564;6.990;2023-10-13T01:09:16;100606.50;;;18.04;100.00
3176;BME280;1599;51.564;6.990;2023-10-13T01:11:46;100610.75;;;17.97;100.00
3176;BME280;1599;51.564;6.990;2023-10-13T01:14:14;100605.16;;;18.02;100.00
3176;BME280;1599;51.564;6.990;2023-10-13T01:16:44;100604.09;;;17.98;100.00
3176;BME280;1599;51.564;6.990;2023-10-13T01:19:16;100599.09;;;17.95;100.00
3176;BME280;1599;51.564;6.990;2023-10-13T01:21:51;100604.13;;;17.93;100.00
3176;BME280;1599;51.564;6.990;2023-10-13T01:24:23;100599.69;;;17.92;100.00
3176;BME280;1599;51.564;6.990;2023-10-13T01:26:50;100600.53;;;17.92;100.00
3176;BME280;1599;51.564;6.990;2023-10-13T01:29:19;100595.53;;;17.89;100.00
3176;BME280;1599;51.564;6.990;2023-10-13T01:31:51;100595.06;;;17.82;100.00
3176;BME280;1599;51.564;6.990;2023-10-13T01:34:19;100585.84;;;17.86;100.00
3176;BME280;1599;51.564;6.990;2023-10-13T01:36:49;100587.50;;;17.87;100.00
3176;BME280;1599;51.564;6.990;2023-10-13T01:39:24;100580.22;;;17.92;100.00
3176;BME280;1599;51.564;6.990;2023-10-13T01:41:57;100578.66;;;17.85;100.00
3176;BME280;1599;51.564;6.990;2023-10-13T01:44:24;100576.94;;;17.89;100.00
3176;BME280;1599;51.564;6.990;2023-10-13T01:46:52;100575.22;;;17.94;100.00
3176;BME280;1599;51.564;6.990;2023-10-13T01:49:17;100570.72;;;17.98;100.00
3176;BME280;1599;51.564;6.990;2023-10-13T01:51:43;100568.63;;;17.84;100.00
3176;BME280;1599;51.564;6.990;2023-10-13T01:54:13;100565.75;;;17.95;100.00
3176;BME280;1599;51.564;6.990;2023-10-13T01:56:41;100561.28;;;17.99;100.00
3176;BME280;1599;51.564;6.990;2023-10-13T01:59:13;100552.38;;;17.97;100.00
3176;BME280;1599;51.564;6.990;2023-10-13T02:01:40;100553.47;;;18.01;100.00
3176;BME280;1599;51.564;6.990;2023-10-13T02:04:07;100535.66;;;18.02;100.00
3176;BME280;1599;51.564;6.990;2023-10-13T02:06:35;100549.53;;;18.02;100.00
3176;BME280;1599;51.564;6.990;2023-10-13T02:09:06;100537.78;;;18.10;100.00
3176;BME280;1599;51.564;6.990;2023-10-13T02:11:44;100536.44;;;18.07;100.00
3176;BME280;1599;51.564;6.990;2023-10-13T02:14:13;100538.41;;;18.07;100.00
3176;BME280;1599;51.564;6.990;2023-10-13T02:16:42;100531.69;;;18.08;100.00
3176;BME280;1599;51.564;6.990;2023-10-13T02:19:08;100523.94;;;18.05;100.00
3176;BME280;1599;51.564;6.990;2023-10-13T02:21:35;100522.25;;;18.09;100.00
3176;BME280;1599;51.564;6.990;2023-10-13T02:24:11;100517.22;;;18.11;100.00
3176;BME280;1599;51.564;6.990;2023-10-13T02:26:44;100513.91;;;18.09;100.00
3176;BME280;1599;51.564;6.990;2023-10-13T02:29:11;100506.63;;;18.13;100.00
3176;BME280;1599;51.564;6.990;2023-10-13T02:31:41;100508.88;;;18.11;100.00
3176;BME280;1599;51.564;6.990;2023-10-13T02:34:08;100497.22;;;18.09;100.00
3176;BME280;1599;51.564;6.990;2023-10-13T02:36:38;100502.25;;;18.07;100.00
3176;BME280;1599;51.564;6.990;2023-10-13T02:39:15;100498.06;;;18.09;100.00
3176;BME280;1599;51.564;6.990;2023-10-13T02:41:50;100485.50;;;18.12;100.00
3176;BME280;1599;51.564;6.990;2023-10-13T02:44:16;100496.44;;;18.03;100.00
3176;BME280;1599;51.564;6.990;2023-10-13T02:46:56;100487.34;;;17.98;100.00
3176;BME280;1599;51.564;6.990;2023-10-13T02:49:29;100492.88;;;17.98;100.00
3176;BME280;1599;51.564;6.990;2023-10-13T02:52:00;100481.19;;;18.01;100.00
3176;BME280;1599;51.564;6.990;2023-10-13T02:54:35;100482.22;;;18.05;100.00
3176;BME280;1599;51.564;6.990;2023-10-13T02:57:06;100477.75;;;18.09;100.00
3176;BME280;1599;51.564;6.990;2023-10-13T02:59:32;100476.09;;;18.08;100.00
3176;BME280;1599;51.564;6.990;2023-10-13T03:02:13;100472.72;;;18.11;100.00
3176;BME280;1599;51.564;6.990;2023-10-13T03:04:58;100468.91;;;18.02;100.00
3176;BME280;1599;51.564;6.990;2023-10-13T03:07:37;100462.00;;;17.99;100.00
3176;BME280;1599;51.564;6.990;2023-10-13T03:10:04;100463.97;;;17.99;100.00
3176;BME280;1599;51.564;6.990;2023-10-13T03:12:36;100471.69;;;18.02;100.00
3176;BME280;1599;51.564;6.990;2023-10-13T03:15:03;100463.34;;;18.07;100.00
3176;BME280;1599;51.564;6.990;2023-10-13T03:17:48;100456.56;;;18.13;100.00
3176;BME280;1599;51.564;6.990;2023-10-13T03:20:16;100452.66;;;18.14;100.00
3176;BME280;1599;51.564;6.990;2023-10-13T03:22:53;100441.53;;;18.14;100.00
3176;BME280;1599;51.564;6.990;2023-10-13T03:25:18;100432.31;;;18.18;100.00
3176;BME280;1599;51.564;6.990;2023-10-13T03:27:51;100430.63;;;18.17;100.00
3176;BME280;1599;51.564;6.990;2023-10-13T03:30:17;100425.91;;;18.18;100.00
3176;BME280;1599;51.564;6.990;2023-10-13T03:32:43;100424.28;;;18.17;100.00
3176;BME280;1599;51.564;6.990;2023-10-13T03:35:12;100423.97;;;18.18;100.00
3176;BME280;1599;51.564;6.990;2023-10-13T03:37:54;100422.00;;;18.19;100.00
3176;BME280;1599;51.564;6.990;2023-10-13T03:40:21;100414.19;;;18.21;100.00
3176;BME280;1599;51.564;6.990;2023-10-13T03:42:56;100419.50;;;18.17;100.00
3176;BME280;1599;51.564;6.990;2023-10-13T03:45:40;100418.09;;;18.20;100.00
3176;BME280;1599;51.564;6.990;2023-10-13T03:48:14;100411.94;;;18.23;100.00
3176;BME280;1599;51.564;6.990;2023-10-13T03:51:02;100401.63;;;18.23;100.00
3176;BME280;1599;51.564;6.990;2023-10-13T03:53:41;100396.47;;;18.17;100.00
3176;BME280;1599;51.564;6.990;2023-10-13T03:56:22;100397.06;;;18.14;100.00
3176;BME280;1599;51.564;6.990;2023-10-13T03:58:55;100384.84;;;18.10;100.00
3176;BME280;1599;51.564;6.990;2023-10-13T04:01:42;100377.66;;;18.09;100.00
3176;BME280;1599;51.564;6.990;2023-10-13T04:04:18;100379.53;;;18.13;100.00
3176;BME280;1599;51.564;6.990;2023-10-13T04:06:56;100371.19;;;18.13;100.00
3176;BME280;1599;51.564;6.990;2023-10-13T04:09:40;100361.66;;;18.19;100.00
3176;BME280;1599;51.564;6.990;2023-10-13T04:12:14;100366.75;;;18.12;100.00
3176;BME280;1599;51.564;6.990;2023-10-13T04:14:59;100356.53;;;18.08;100.00
3176;BME280;1599;51.564;6.990;2023-10-13T04:17:30;100343.38;;;18.13;100.00
3176;BME280;1599;51.564;6.990;2023-10-13T04:20:00;100338.16;;;18.12;100.00
3176;BME280;1599;51.564;6.990;2023-10-13T04:22:43;100343.31;;;18.18;100.00
3176;BME280;1599;51.564;6.990;2023-10-13T04:25:29;100340.28;;;18.15;100.00
3176;BME280;1599;51.564;6.990;2023-10-13T04:28:09;100341.44;;;18.14;100.00
3176;BME280;1599;51.564;6.990;2023-10-13T04:30:43;100340.84;;;18.17;100.00
3176;BME280;1599;51.564;6.990;2023-10-13T04:33:26;100328.13;;;18.11;100.00
3176;BME280;1599;51.564;6.990;2023-10-13T04:36:15;100318.13;;;18.10;100.00
3176;BME280;1599;51.564;6.990;2023-10-13T04:38:59;100318.75;;;18.07;100.00
3176;BME280;1599;51.564;6.990;2023-10-13T04:41:38;100316.69;;;18.12;100.00
3176;BME280;1599;51.564;6.990;2023-10-13T04:44:11;100309.78;;;18.10;100.00
3176;BME280;1599;51.564;6.990;2023-10-13T04:46:56;100305.66;;;18.07;100.00
3176;BME280;1599;51.564;6.990;2023-10-13T04:49:32;100307.63;;;18.07;100.00
3176;BME280;1599;51.564;6.990;2023-10-13T04:52:15;100298.16;;;18.08;100.00
3176;BME280;1599;51.564;6.990;2023-10-13T04:55:00;100292.81;;;18.11;100.00
3176;BME280;1599;51.564;6.990;2023-10-13T04:57:44;100297.56;;;18.11;100.00
3176;BME280;1599;51.564;6.990;2023-10-13T05:00:15;100299.94;;;18.17;100.00
3176;BME280;1599;51.564;6.990;2023-10-13T05:02:47;100293.78;;;18.20;100.00
3176;BME280;1599;51.564;6.990;2023-10-13T05:05:22;100279.59;;;18.22;100.00
3176;BME280;1599;51.564;6.990;2023-10-13T05:07:51;100278.25;;;18.19;100.00
3176;BME280;1599;51.564;6.990;2023-10-13T05:10:36;100254.56;;;18.22;100.00
3176;BME280;1599;51.564;6.990;2023-10-13T05:13:21;100266.44;;;18.27;100.00
3176;BME280;1599;51.564;6.990;2023-10-13T05:16:06;100257.88;;;18.24;100.00
3176;BME280;1599;51.564;6.990;2023-10-13T05:18:50;100265.00;;;18.30;100.00
3176;BME280;1599;51.564;6.990;2023-10-13T05:21:35;100257.88;;;18.24;100.00
3176;BME280;1599;51.564;6.990;2023-10-13T05:24:19;100256.03;;;18.33;100.00
3176;BME280;1599;51.564;6.990;2023-10-13T05:27:03;100251.63;;;18.32;100.00
3176;BME280;1599;51.564;6.990;2023-10-13T05:29:47;100240.41;;;18.37;100.00
3176;BME280;1599;51.564;6.990;2023-10-13T05:32:33;100242.88;;;18.38;100.00
3176;BME280;1599;51.564;6.990;2023-10-13T05:35:21;100238.44;;;18.37;100.00
3176;BME280;1599;51.564;6.990;2023-10-13T05:38:05;100253.78;;;18.35;100.00
3176;BME280;1599;51.564;6.990;2023-10-13T05:40:57;100248.06;;;18.45;100.00
3176;BME280;1599;51.564;6.990;2023-10-13T05:43:42;100251.28;;;18.33;100.00
3176;BME280;1599;51.564;6.990;2023-10-13T05:46:26;100258.28;;;18.31;100.00
3176;BME280;1599;51.564;6.990;2023-10-13T05:48:55;100256.56;;;18.35;100.00
3176;BME280;1599;51.564;6.990;2023-10-13T05:51:33;100261.44;;;18.43;100.00
3176;BME280;1599;51.564;6.990;2023-10-13T05:54:06;100263.59;;;18.46;100.00
3176;BME280;1599;51.564;6.990;2023-10-13T05:56:44;100259.78;;;18.42;100.00
3176;BME280;1599;51.564;6.990;2023-10-13T05:59:31;100273.94;;;18.45;100.00
3176;BME280;1599;51.564;6.990;2023-10-13T06:02:17;100254.81;;;18.39;100.00
3176;BME280;1599;51.564;6.990;2023-10-13T06:05:10;100281.81;;;18.38;100.00
3176;BME280;1599;51.564;6.990;2023-10-13T06:07:56;100278.84;;;18.54;100.00
3176;BME280;1599;51.564;6.990;2023-10-13T06:10:42;100264.75;;;18.45;100.00
3176;BME280;1599;51.564;6.990;2023-10-13T06:13:26;100255.88;;;18.43;100.00
3176;BME280;1599;51.564;6.990;2023-10-13T06:16:14;100257.09;;;18.37;100.00
3176;BME280;1599;51.564;6.990;2023-10-13T06:18:59;100248.75;;;18.37;100.00
3176;BME280;1599;51.564;6.990;2023-10-13T06:21:44;100240.25;;;18.47;100.00
3176;BME280;1599;51.564;6.990;2023-10-13T06:24:29;100223.25;;;18.48;100.00
3176;BME280;1599;51.564;6.990;2023-10-13T06:27:14;100217.31;;;18.55;100.00
3176;BME280;1599;51.564;6.990;2023-10-13T06:29:59;100215.13;;;18.52;100.00
3176;BME280;1599;51.564;6.990;2023-10-13T06:32:26;100224.00;;;18.54;100.00
3176;BME280;1599;51.564;6.990;2023-10-13T06:34:53;100225.34;;;18.57;100.00
3176;BME280;1599;51.564;6.990;2023-10-13T06:37:33;100223.19;;;18.54;100.00
3176;BME280;1599;51.564;6.990;2023-10-13T06:40:09;100221.19;;;18.54;100.00
3176;BME280;1599;51.564;6.990;2023-10-13T06:42:54;100213.81;;;18.63;100.00
3176;BME280;1599;51.564;6.990;2023-10-13T06:45:29;100204.88;;;18.66;100.00
3176;BME280;1599;51.564;6.990;2023-10-13T06:47:54;100202.69;;;18.63;100.00
3176;BME280;1599;51.564;6.990;2023-10-13T06:50:21;100200.41;;;18.65;100.00
3176;BME280;1599;51.564;6.990;2023-10-13T06:52:50;100202.19;;;18.61;100.00
3176;BME280;1599;51.564;6.990;2023-10-13T06:55:17;100205.88;;;18.70;100.00
3176;BME280;1599;51.564;6.990;2023-10-13T06:57:49;100204.25;;;18.69;100.00
3176;BME280;1599;51.564;6.990;2023-10-13T07:00:17;100209.81;;;18.69;100.00
3176;BME280;1599;51.564;6.990;2023-10-13T07:02:53;100208.38;;;18.72;100.00
3176;BME280;1599;51.564;6.990;2023-10-13T07:05:19;100222.16;;;18.63;100.00
3176;BME280;1599;51.564;6.990;2023-10-13T07:07:45;100220.75;;;18.79;100.00
3176;BME280;1599;51.564;6.990;2023-10-13T07:10:13;100218.47;;;18.81;100.00
3176;BME280;1599;51.564;6.990;2023-10-13T07:12:39;100209.81;;;18.83;100.00
3176;BME280;1599;51.564;6.990;2023-10-13T07:15:12;100207.34;;;18.81;100.00
3176;BME280;1599;51.564;6.990;2023-10-13T07:17:43;100208.09;;;18.87;100.00
3176;BME280;1599;51.564;6.990;2023-10-13T07:20:11;100210.44;;;18.93;100.00
3176;BME280;1599;51.564;6.990;2023-10-13T07:22:50;100208.09;;;19.00;100.00
3176;BME280;1599;51.564;6.990;2023-10-13T07:25:37;100211.28;;;19.07;100.00
3176;BME280;1599;51.564;6.990;2023-10-13T07:28:07;100200.16;;;19.07;100.00
3176;BME280;1599;51.564;6.990;2023-10-13T07:30:38;100199.53;;;19.10;100.00
3176;BME280;1599;51.564;6.990;2023-10-13T07:33:19;100199.72;;;19.14;100.00
3176;BME280;1599;51.564;6.990;2023-10-13T07:36:03;100198.28;;;19.17;100.00
3176;BME280;1599;51.564;6.990;2023-10-13T07:38:46;100192.09;;;19.20;100.00
3176;BME280;1599;51.564;6.990;2023-10-13T07:41:17;100194.56;;;19.21;100.00
3176;BME280;1599;51.564;6.990;2023-10-13T07:43:48;100186.13;;;19.13;100.00
3176;BME280;1599;51.564;6.990;2023-10-13T07:46:14;100181.56;;;19.17;100.00
3176;BME280;1599;51.564;6.990;2023-10-13T07:48:40;100180.09;;;19.33;100.00
3176;BME280;1599;51.564;6.990;2023-10-13T07:51:08;100178.66;;;19.35;100.00
3176;BME280;1599;51.564;6.990;2023-10-13T07:53:39;100183.22;;;19.45;100.00
3176;BME280;1599;51.564;6.990;2023-10-13T07:56:07;100169.19;;;19.50;100.00
3176;BME280;1599;51.564;6.990;2023-10-13T07:58:34;100169.69;;;19.52;100.00
3176;BME280;1599;51.564;6.990;2023-10-13T08:01:11;100177.81;;;19.62;100.00
3176;BME280;1599;51.564;6.990;2023-10-13T08:03:43;100171.38;;;19.75;100.00
3176;BME280;1599;51.564;6.990;2023-10-13T08:06:14;100163.88;;;19.84;100.00
3176;BME280;1599;51.564;6.990;2023-10-13T08:08:40;100166.84;;;20.01;100.00
3176;BME280;1599;51.564;6.990;2023-10-13T08:11:14;100163.16;;;20.14;100.00
3176;BME280;1599;51.564;6.990;2023-10-13T08:13:49;100153.19;;;20.22;100.00
3176;BME280;1599;51.564;6.990;2023-10-13T08:16:29;100146.75;;;20.35;100.00
3176;BME280;1599;51.564;6.990;2023-10-13T08:19:16;100146.56;;;20.31;100.00
3176;BME280;1599;51.564;6.990;2023-10-13T08:21:43;100127.50;;;20.33;100.00
3176;BME280;1599;51.564;6.990;2023-10-13T08:24:17;100125.09;;;20.18;100.00
3176;BME280;1599;51.564;6.990;2023-10-13T08:26:51;100127.00;;;20.31;100.00
3176;BME280;1599;51.564;6.990;2023-10-13T08:29:28;100106.66;;;20.31;100.00
3176;BME280;1599;51.564;6.990;2023-10-13T08:31:55;100137.13;;;20.50;100.00
3176;BME280;1599;51.564;6.990;2023-10-13T08:34:31;100116.16;;;20.61;100.00
3176;BME280;1599;51.564;6.990;2023-10-13T08:37:23;100103.09;;;20.70;100.00
3176;BME280;1599;51.564;6.990;2023-10-13T08:39:49;100107.59;;;20.88;100.00
3176;BME280;1599;51.564;6.990;2023-10-13T08:42:44;100097.19;;;20.80;100.00
3176;BME280;1599;51.564;6.990;2023-10-13T08:45:12;100090.16;;;20.82;100.00
3176;BME280;1599;51.564;6.990;2023-10-13T08:47:58;100091.63;;;20.80;100.00
3176;BME280;1599;51.564;6.990;2023-10-13T08:53:32;100085.72;;;20.90;100.00
3176;BME280;1599;51.564;6.990;2023-10-13T08:56:12;100049.44;;;20.99;100.00
3176;BME280;1599;51.564;6.990;2023-10-13T08:58:49;100064.88;;;20.96;100.00
3176;BME280;1599;51.564;6.990;2023-10-13T09:01:32;100059.28;;;21.05;100.00
3176;BME280;1599;51.564;6.990;2023-10-13T09:03:58;100057.84;;;21.07;100.00
3176;BME280;1599;51.564;6.990;2023-10-13T09:06:47;100065.53;;;21.02;100.00
3176;BME280;1599;51.564;6.990;2023-10-13T09:09:34;100050.31;;;21.16;100.00
3176;BME280;1599;51.564;6.990;2023-10-13T09:12:28;100044.84;;;21.03;100.00
3176;BME280;1599;51.564;6.990;2023-10-13T09:15:09;100046.81;;;21.02;100.00
3176;BME280;1599;51.564;6.990;2023-10-13T09:17:42;100052.88;;;21.04;100.00
3176;BME280;1599;51.564;6.990;2023-10-13T09:20:14;100043.38;;;21.05;100.00
3176;BME280;1599;51.564;6.990;2023-10-13T09:23:14;100037.09;;;20.91;100.00
3176;BME280;1599;51.564;6.990;2023-10-13T09:25:50;100035.47;;;20.90;100.00
3176;BME280;1599;51.564;6.990;2023-10-13T09:28:20;100034.44;;;20.86;100.00
3176;BME280;1599;51.564;6.990;2023-10-13T09:30:53;100027.75;;;20.96;100.00
3176;BME280;1599;51.564;6.990;2023-10-13T09:33:27;100035.47;;;20.90;100.00
3176;BME280;1599;51.564;6.990;2023-10-13T09:36:02;100034.66;;;20.98;100.00
3176;BME280;1599;51.564;6.990;2023-10-13T09:38:36;100026.00;;;21.08;100.00
3176;BME280;1599;51.564;6.990;2023-10-13T09:41:07;100024.63;;;20.97;100.00
3176;BME280;1599;51.564;6.990;2023-10-13T09:43:52;100020.72;;;21.15;100.00
3176;BME280;1599;51.564;6.990;2023-10-13T09:46:21;100022.88;;;21.27;100.00
3176;BME280;1599;51.564;6.990;2023-10-13T09:48:58;100020.41;;;21.25;100.00
3176;BME280;1599;51.564;6.990;2023-10-13T09:51:34;100022.06;;;21.35;100.00
3176;BME280;1599;51.564;6.990;2023-10-13T09:56:43;100008.91;;;21.27;100.00
3176;BME280;1599;51.564;6.990;2023-10-13T09:59:34;100006.94;;;21.27;100.00
3176;BME280;1599;51.564;6.990;2023-10-13T10:02:05;100002.31;;;21.31;100.00
3176;BME280;1599;51.564;6.990;2023-10-13T10:04:37;99995.75;;;21.44;100.00
3176;BME280;1599;51.564;6.990;2023-10-13T10:07:27;99985.53;;;21.48;100.00
3176;BME280;1599;51.564;6.990;2023-10-13T10:10:00;100001.97;;;21.59;100.00
3176;BME280;1599;51.564;6.990;2023-10-13T10:15:20;99990.25;;;21.91;100.00
3176;BME280;1599;51.564;6.990;2023-10-13T10:17:56;99983.81;;;21.99;100.00
3176;BME280;1599;51.564;6.990;2023-10-13T10:20:35;99992.66;;;22.09;100.00
3176;BME280;1599;51.564;6.990;2023-10-13T10:23:10;99980.31;;;22.10;100.00
3176;BME280;1599;51.564;6.990;2023-10-13T10:25:50;99967.69;;;21.96;100.00
3176;BME280;1599;51.564;6.990;2023-10-13T10:28:23;99968.84;;;21.95;100.00
3176;BME280;1599;51.564;6.990;2023-10-13T10:30:49;99977.84;;;22.09;100.00
3176;BME280;1599;51.564;6.990;2023-10-13T10:33:15;99982.47;;;22.05;100.00
3176;BME280;1599;51.564;6.990;2023-10-13T10:35:59;99976.97;;;22.17;100.00
3176;BME280;1599;51.564;6.990;2023-10-13T10:38:25;99974.78;;;22.31;100.00
3176;BME280;1599;51.564;6.990;2023-10-13T10:40:58;99981.72;;;22.25;100.00
3176;BME280;1599;51.564;6.990;2023-10-13T10:43:29;99984.72;;;22.20;100.00
3176;BME280;1599;51.564;6.990;2023-10-13T10:46:17;99987.34;;;22.17;100.00
3176;BME280;1599;51.564;6.990;2023-10-13T10:48:43;99977.63;;;22.23;100.00
3176;BME280;1599;51.564;6.990;2023-10-13T10:51:15;99963.97;;;22.21;100.00
3176;BME280;1599;51.564;6.990;2023-10-13T10:53:50;99966.38;;;22.31;100.00
3176;BME280;1599;51.564;6.990;2023-10-13T10:56:22;99959.63;;;22.32;100.00
3176;BME280;1599;51.564;6.990;2023-10-13T10:59:00;99960.41;;;22.41;100.00
3176;BME280;1599;51.564;6.990;2023-10-13T11:01:28;99956.94;;;22.44;100.00
3176;BME280;1599;51.564;6.990;2023-10-13T11:04:13;99959.34;;;22.54;100.00
3176;BME280;1599;51.564;6.990;2023-10-13T11:06:54;99953.38;;;22.56;100.00
3176;BME280;1599;51.564;6.990;2023-10-13T11:09:31;99951.81;;;22.76;100.00
3176;BME280;1599;51.564;6.990;2023-10-13T11:12:10;99939.75;;;22.84;100.00
3176;BME280;1599;51.564;6.990;2023-10-13T11:14:48;99933.63;;;22.82;100.00
3176;BME280;1599;51.564;6.990;2023-10-13T11:17:20;99932.94;;;22.85;100.00
3176;BME280;1599;51.564;6.990;2023-10-13T11:19:52;99928.03;;;22.82;100.00
3176;BME280;1599;51.564;6.990;2023-10-13T11:22:21;99926.72;;;22.79;100.00
3176;BME280;1599;51.564;6.990;2023-10-13T11:25:00;99911.78;;;22.75;100.00
3176;BME280;1599;51.564;6.990;2023-10-13T11:27:32;99919.22;;;22.92;100.00
3176;BME280;1599;51.564;6.990;2023-10-13T11:30:18;99907.81;;;22.97;100.00
3176;BME280;1599;51.564;6.990;2023-10-13T11:33:05;99901.13;;;23.10;100.00
3176;BME280;1599;51.564;6.990;2023-10-13T11:35:35;99897.59;;;23.13;100.00
3176;BME280;1599;51.564;6.990;2023-10-13T11:41:00;99881.84;;;23.20;100.00
3176;BME280;1599;51.564;6.990;2023-10-13T11:43:40;99878.94;;;23.17;100.00
3176;BME280;1599;51.564;6.990;2023-10-13T11:46:07;99878.25;;;23.20;100.00
3176;BME280;1599;51.564;6.990;2023-10-13T11:48:42;99872.16;;;23.18;100.00
3176;BME280;1599;51.564;6.990;2023-10-13T11:51:14;99861.53;;;23.11;100.00
3176;BME280;1599;51.564;6.990;2023-10-13T11:53:50;99853.78;;;23.08;100.00
3176;BME280;1599;51.564;6.990;2023-10-13T11:56:20;99851.84;;;23.21;100.00
3176;BME280;1599;51.564;6.990;2023-10-13T11:58:47;99853.63;;;23.25;100.00
3176;BME280;1599;51.564;6.990;2023-10-13T12:01:13;99864.03;;;23.25;100.00
3176;BME280;1599;51.564;6.990;2023-10-13T12:03:44;99863.13;;;23.33;100.00
3176;BME280;1599;51.564;6.990;2023-10-13T12:06:30;99852.63;;;23.42;100.00
3176;BME280;1599;51.564;6.990;2023-10-13T12:09:08;99851.81;;;23.42;100.00
3176;BME280;1599;51.564;6.990;2023-10-13T12:11:57;99846.59;;;23.52;100.00
3176;BME280;1599;51.564;6.990;2023-10-13T12:14:26;99854.88;;;23.49;100.00
3176;BME280;1599;51.564;6.990;2023-10-13T12:17:02;99849.84;;;23.42;100.00
3176;BME280;1599;51.564;6.990;2023-10-13T12:19:36;99854.53;;;23.50;100.00
3176;BME280;1599;51.564;6.990;2023-10-13T12:22:04;99845.19;;;23.58;100.00
3176;BME280;1599;51.564;6.990;2023-10-13T12:24:33;99840.50;;;23.62;100.00
3176;BME280;1599;51.564;6.990;2023-10-13T12:27:03;99839.13;;;23.68;100.00
3176;BME280;1599;51.564;6.990;2023-10-13T12:29:47;99834.94;;;23.74;100.00
3176;BME280;1599;51.564;6.990;2023-10-13T12:32:14;99826.97;;;23.88;100.00
3176;BME280;1599;51.564;6.990;2023-10-13T12:34:44;99821.38;;;24.01;100.00
3176;BME280;1599;51.564;6.990;2023-10-13T12:37:29;99816.78;;;23.96;100.00
3176;BME280;1599;51.564;6.990;2023-10-13T12:40:14;99816.69;;;23.92;100.00
3176;BME280;1599;51.564;6.990;2023-10-13T12:42:59;99814.13;;;23.87;100.00
3176;BME280;1599;51.564;6.990;2023-10-13T12:45:45;99821.38;;;24.01;100.00
3176;BME280;1599;51.564;6.990;2023-10-13T12:48:31;99806.44;;;24.09;100.00
3176;BME280;1599;51.564;6.990;2023-10-13T12:51:16;99801.94;;;24.08;100.00
3176;BME280;1599;51.564;6.990;2023-10-13T12:53:57;99801.47;;;24.06;100.00
3176;BME280;1599;51.564;6.990;2023-10-13T12:56:52;99805.47;;;23.92;100.00
3176;BME280;1599;51.564;6.990;2023-10-13T12:59:23;99812.50;;;24.11;100.00
3176;BME280;1599;51.564;6.990;2023-10-13T13:01:53;99818.31;;;24.18;100.00
3176;BME280;1599;51.564;6.990;2023-10-13T13:04:19;99804.41;;;24.09;100.00
3176;BME280;1599;51.564;6.990;2023-10-13T13:06:50;99826.75;;;24.18;100.00
3176;BME280;1599;51.564;6.990;2023-10-13T13:09:16;99829.69;;;24.21;100.00
3176;BME280;1599;51.564;6.990;2023-10-13T13:11:54;99813.53;;;24.18;100.00
3176;BME280;1599;51.564;6.990;2023-10-13T13:14:26;99824.16;;;24.25;100.00
3176;BME280;1599;51.564;6.990;2023-10-13T13:16:56;99818.31;;;24.18;100.00
3176;BME280;1599;51.564;6.990;2023-10-13T13:19:36;99826.16;;;24.12;98.21
3176;BME280;1599;51.564;6.990;2023-10-13T13:22:05;99815.97;;;24.20;100.00
3176;BME280;1599;51.564;6.990;2023-10-13T13:24:41;99815.53;;;24.18;100.00
3176;BME280;1599;51.564;6.990;2023-10-13T13:27:14;99815.19;;;24.19;99.72
3176;BME280;1599;51.564;6.990;2023-10-13T13:29:41;99815.50;;;24.06;100.00
3176;BME280;1599;51.564;6.990;2023-10-13T13:32:07;99812.25;;;24.04;100.00
3176;BME280;1599;51.564;6.990;2023-10-13T13:34:48;99797.28;;;24.12;100.00
3176;BME280;1599;51.564;6.990;2023-10-13T13:37:43;99811.09;;;24.17;96.52
3176;BME280;1599;51.564;6.990;2023-10-13T13:40:10;99811.56;;;24.19;95.33
3176;BME280;1599;51.564;6.990;2023-10-13T13:42:47;99807.09;;;24.18;97.17
3176;BME280;1599;51.564;6.990;2023-10-13T13:45:18;99807.00;;;24.14;100.00
3176;BME280;1599;51.564;6.990;2023-10-13T13:47:49;99811.44;;;24.15;96.45
3176;BME280;1599;51.564;6.990;2023-10-13T13:50:26;99796.69;;;23.94;96.37
3176;BME280;1599;51.564;6.990;2023-10-13T13:52:54;99795.50;;;24.07;92.69
3176;BME280;1599;51.564;6.990;2023-10-13T13:55:25;99807.47;;;24.16;89.53